Pular para o conteúdo principal

Postagens

Mostrando postagens de Novembro 5, 2010

VOOS TURÍSTICOS DE BALÕES DEVERÃO RETORNAR NESTE FIM DE SEMANA EM BOITUVA, SÃO PAULO

SÃO PAULO - Os voos turísticos de balões poderão ser retomados neste fim de semana em Boituva, cidade a 117 quilômetros da capital, uma semana depois do acidente que provocou a morte de três pessoas e deixou pelo menos 16 feridos. De acordo com a Prefeitura da cidade, os voos estão liberados. Segundo a Prefeitura, os balonistas da cidade informam que já há várias reservas para os passeios e se as condições meteorológicas permitirem, eles devem acontecer.
A previsão para a cidade de Boituva é de um sábado com bastante vento, e possibilidade de chuva, já que uma frente fria avança sobre a região Sudeste, atingindo São Paulo. Para o domingo, entretanto, a meteorologia prevê um dia sem chuva, com bastante sol.
- Pode ventar bastante no sábado na região de Boituva por causa da frente fria, bem parecido com o que vai acontecer na capital, e há possibilidade de chuva pela manhã. Já no domingo, o dia será ensolarado e sem chuva - diz a meteorologista Camila Ramos, da Climatempo.
De acordo com a …

BOEING 747 DA QANTAS FAZ POUSO DE EMERGÊNCIA NA INDONÉSIA

SINGAPORE, 5 Nov 2010 (AFP) -Outro avião da companhia aérea Qantas, desta vez um Boeing 747-400, fez um pouso forçado nesta sexta-feira em Cingapura por causa de um problema nas turbinas, anunciou um porta-voz da companhia australiana.

O Boeing 747-400 aterrissou sem contratempos no aeroporto de Changi, precisou a porta-voz.


"Pouco depois da decolagem, o comandante teve um problema com os motores", acrescentou.

fonte/foto/AFP/UOL
Related articlesQantas Plane Turns Back With Engine Problem (news.sky.com)Second Qantas jet in engine scare (bbc.co.uk)Qantas Flight Engine Trouble Nov 5: Heads Back to Singapore (nowpublic.com)Another plane in trouble (theage.com.au)Qantas 747 lands in Singapore after engine trouble (sfgate.com)Another Qantas plane makes emergency landing in Singapore (nationalpost.com)

BEECH 1900C CAI NO PAQUISTÃO

Um Beech 1900C, da companhia JS air, decolando de Carachi para Bhit Shah, Paquistão, com 19 passageiros e 2 tripulantes, caiu após 2 minutos de voo e a tripulação informar emergência em razão de pane no motor direito, e tentariam regressar ao aeroporto internacional JinnahKarachi.
O avião fretado levava trabalhadores italianos da empresa ENI para os campos petrolíferos de Bhit Shah.
Não houve sobreviventes.
Metars:
OPKC 050330Z 03003KTS 3000 FU SKC 22/18 Q.1014 NOSIG
OPKC 050328Z 03003KTS 3000 FU SKC 22/18 Q.1014 NOSIG
OPKC 050230Z 05003KT 3000 FU FEW030 18/15 Q1014 NOSIG
OPKC 050200Z 04003KT 3000 FU SKC 18/15 Q1013 NOSIG
OPKC 050130Z 00000KT 4000 FU SKC 18/16 Q1013 NOSIG
OPKC 050100Z 36002KT 5000 FU SKC 18/16 Q1013 NOSIG
OPKC 050030Z 05003KT 5000 FU SKC 18/16 Q1013 NOSIG
OPKC 050000Z 02002KT 5000 FU SKC 18/16 Q1012 NOSIG 




fonte/AvHerald/foto/Reuters



Related articles21 killed in Karachi plane crash (topinews.com)21 killed in Pakistan plane crash (ibnlive.in.com)Private plane with 2…

QANTAS DIZ QUE AVARIA NA TURBINA DO AIRBUS PODE SER PROBLEMA DE PROJETO

A avaria na turbina sofrida na véspera pelo Airbus A380 da companhia aérea Qantas que fez um pouso de emergência em Cingapura talvez se deva a um problema de concepção, declarou nesta sexta-feira o diretor-geral da empresa australiana, Alan Joyce. Joyce, que revelou que vários pneus do avião arrebentaram no momento do pouso, indicou igualmente que a companhia espera retomar os voos de sua frota de A380 dentro de 48 horas depois de checar os aparelhos.

— Achamos que se trata muito provavelmente de uma avaria material ou uma questão de concepção — afirmou.

O Airbus A380 acidentado está equipado com motores Trent 900 da britânica Rolls Royce, que recomendou exames do conjunto de turbinas desse tipo.

— Achamos que as verificações estarão terminadas daqui umas 24 a 48 horas. Se não encontrarmos nada de negativo, os aparelhos voltarão a votar — explicou.

Por sua parte, a Airbus enviou uma equipe de seis especialistas a Cingapura. Outras duas companhias com aviões A380 equipa…

PÁSSARO ENTRA EM TURBINA E IMPEDE DECOLAGEM DE AVIÃO DA TAM NO ESPÍRITO SANTO

VITÓRIA - Os 103 passageiros do voo 3129 da empresa aérea TAM, que decolaria do aeroporto de Vitória para São Paulo, às 6h05m desta sexta-feira, passaram por um susto. Uma ave entrou na turbina direita do avião e interrompeu a decolagem do Airbus 320
Segundo passageiros que estavam na aeronave, o piloto já tinha autorização para decolar quando ouviram um barulho e o procedimento foi abortado. Segundo relato dos passageiros, o avião já estava em velocidade para decolar e houve uma forte vibração do lado direito. Possivelmente a ave se tratava de um urubu. A assessoria de imprensa da Infraero confirmou a ocorrência no Aeroporto de Vitória. 
Nenhum tipo de problema entre os passageiros a bordo foi registrado e o comandante informou que retornaria ao pátio. A empresa realocou os passageiros em outras aeronaves para seguirem viagem para Guarulhos, em São Paulo. 
As operações no aeroporto de Vitória continuaram sem problemas. A aeronave da TAM ficou no solo para reparos. 
fonte/G…

ARGENTINA ENVIA AVIÃO A ACUBA PARA REPATRIAR VÍTIMAS DE ACIDENTE

O governo da Argentina enviará um avião a Cuba para repatriar os corpos dos argentinos mortos nesta quinta-feira em um acidente aéreo ocorrido no centro do país caribenho, informaram fontes oficiais.
"A presidente Cristina Fernández ordenou que preparássemos um avião para trazer as vítimas da aeronave cubana", destacou o chanceler argentino, Héctor Timerman, em mensagem divulgada na rede social Twitter. A embaixadora da Argentina em Cuba, Juliana Marino, confirmou que nove argentinos viajavam no avião da companhia cubana Aerocaribbean que cobria o voo Santiago de Cuba-Havana e caiu em uma paragem da província central de Sancti Spiritus.
"É um momento de muita dor. Só esperamos poder assistir adequadamente com todos os trâmites às famílias das vítimas", disse o diplomata à rádio "La Red", de Buenos Aires.
No avião acidentado viajavam 40 cubanos, entre eles sete membros da tripulação, e 28 cidadãos estrangeiros de dez nacionalidades…

CUBA CONFIRMA QUE NÃO HÁ SOBREVIVENTES NO ACIDENTE AÉRREO

Um avião da companhia aérea cubana Aerocaribbean,  caiu na noite de quinta-feira em uma zona agreste do centro de Cuba, matando seus 68 ocupantes, entre eles 28 estrangeiros, informou o site Cubadebate.cu.
Os estrangeiros mortos são nove argentinos, sete mexicanos, um venezuelano, três holandeses, dois alemães, dois austríacos, um francês, um espanhol, um italiano e um japonês, segundo um comunicado do Instituto de Aeronáutica Civil de Cuba.
A aeronave caiu na região de Guasimal, província de Sancti Spíritus com 61 passageiros e sete tripulantes a bordo, quando fazia a rota entre a cidade de Santiago de Cuba e Havana. As forças de socorro recuperaram os primeiros corpos entre os restos do avião, que se encontravam em chamas numa zona de difícil acesso.
O aparelho, um ATR-72-212, construído pela sociedade franco-italiana Avions de Transports Régional, informou sobre "uma situação de emergência e perdeu contato com o serviço de controle de tráfego aéreo antes de cair. As autoridades a…